Terminal Aerodrome Forecast
Issued by NWS

Home | Current Version | Previous Version | Text Only | Print | Product List | Glossary On
Versions: 1 2 3 4 5 6 7 8 9 10 11 12 13 14 15 16 17 18 19
000
FTUS43 KDVN 242329
TAFCID
TAF
KCID 242329Z 2500/2524 30006KT P6SM VCSH SCT025
      TEMPO 2500/2504 2SM TSRA BR BKN020CB OVC035
     FM250400 31005KT 4SM -SHRA BR SCT025 BKN035
     FM251400 33006KT P6SM SCT200=

USA.gov is the U.S. government's official web portal to all federal, state and local government web resources and services.